Time;durP1;ratioP1;P1;durP2;ratioP2;P2;SDS_P1;SDS_P2;PMS_P1;PMS_P2;Temp;Humidity;BMP_temperature;BMP_pressure;BME280_temperature;BME280_humidity;BME280_pressure;Samples;Min_cycle;Max_cycle;Signal;HPM_P1;HPM_P2
2023/05/25 00:01:25;;;;;;;35.77;33.07;;;;;;;;;;5029834;28;21288;-82
2023/05/25 00:03:51;;;;;;;31.73;29.13;;;;;;;;;;5015295;28;20477;-83
2023/05/25 00:06:18;;;;;;;30.50;28.20;;;;;;;;;;5009115;28;20775;-82
2023/05/25 00:08:45;;;;;;;49.40;46.00;;;;;;;;;;5023551;28;20484;-83
2023/05/25 00:11:11;;;;;;;36.23;33.53;;;;;;;;;;5011057;28;20501;-82
2023/05/25 00:13:38;;;;;;;46.37;42.47;;;;;;;;;;5021197;28;20432;-81
2023/05/25 00:16:05;;;;;;;31.77;29.10;;;;;;;;;;5028503;28;20506;-82
2023/05/25 00:18:36;;;;;;;31.77;29.30;;;;;;;;;;5023601;28;20442;-81
2023/05/25 00:21:05;;;;;;;35.00;32.30;;;;;;;;;;5027676;28;20410;-83
2023/05/25 00:23:31;;;;;;;30.40;28.03;;;;;;;;;;5005246;28;20443;-81
2023/05/25 00:25:58;;;;;;;28.17;25.97;;;;;;;;;;5011367;28;21028;-82
2023/05/25 00:28:24;;;;;;;32.10;29.43;;;;;;;;;;5021943;28;20849;-82
2023/05/25 00:30:50;;;;;;;27.17;24.80;;;;;;;;;;5019099;28;20420;-83
2023/05/25 00:33:16;;;;;;;29.53;26.73;;;;;;;;;;5021881;28;20925;-82
2023/05/25 00:35:43;;;;;;;30.27;27.50;;;;;;;;;;5018619;28;20788;-83
2023/05/25 00:38:16;;;;;;;19.30;17.33;;;;;;;;;;5018229;28;20481;-82
2023/05/25 00:40:42;;;;;;;26.07;23.83;;;;;;;;;;5023394;28;20414;-83
2023/05/25 00:43:09;;;;;;;29.83;26.73;;;;;;;;;;5015321;28;20917;-81
2023/05/25 00:45:35;;;;;;;28.00;25.60;;;;;;;;;;5025621;28;20493;-83
2023/05/25 00:48:01;;;;;;;27.50;25.13;;;;;;;;;;5011392;28;20482;-83
2023/05/25 00:50:38;;;;;;;38.57;34.97;;;;;;;;;;5023335;28;20454;-82
2023/05/25 00:53:05;;;;;;;25.83;23.23;;;;;;;;;;5017250;28;20525;-82
2023/05/25 00:55:33;;;;;;;33.87;30.87;;;;;;;;;;5017113;28;20392;-82
2023/05/25 00:58:00;;;;;;;61.17;56.80;;;;;;;;;;5022010;28;20488;-82
2023/05/25 01:00:28;;;;;;;30.93;27.83;;;;;;;;;;5025861;28;20403;-82
2023/05/25 01:02:55;;;;;;;42.97;38.87;;;;;;;;;;5018827;28;20537;-82
2023/05/25 01:05:24;;;;;;;27.20;24.90;;;;;;;;;;5025483;28;20464;-82
2023/05/25 01:07:51;;;;;;;69.70;63.60;;;;;;;;;;5019827;28;20496;-82
2023/05/25 01:10:18;;;;;;;33.50;30.63;;;;;;;;;;5025058;28;20478;-83
2023/05/25 01:12:45;;;;;;;23.77;20.70;;;;;;;;;;5012815;28;20487;-82
2023/05/25 01:15:11;;;;;;;28.00;25.40;;;;;;;;;;5022451;28;20477;-82
2023/05/25 01:17:38;;;;;;;34.70;31.90;;;;;;;;;;5014699;28;21139;-82
2023/05/25 01:20:06;;;;;;;32.00;28.87;;;;;;;;;;5019520;28;20443;-82
2023/05/25 01:22:37;;;;;;;29.67;26.57;;;;;;;;;;5022769;28;21148;-83
2023/05/25 01:25:07;;;;;;;28.53;26.10;;;;;;;;;;5016626;28;20484;-82
2023/05/25 01:27:38;;;;;;;32.90;30.50;;;;;;;;;;5023106;28;20462;-82
2023/05/25 01:30:06;;;;;;;26.00;23.47;;;;;;;;;;5021720;28;20466;-82
2023/05/25 01:32:33;;;;;;;24.00;20.73;;;;;;;;;;5010375;28;20451;-82
2023/05/25 01:35:00;;;;;;;21.47;18.03;;;;;;;;;;5023439;28;20570;-82
2023/05/25 01:37:27;;;;;;;21.80;18.40;;;;;;;;;;5023009;28;20516;-83
2023/05/25 01:39:53;;;;;;;20.17;16.73;;;;;;;;;;5016786;28;20427;-82
2023/05/25 01:42:19;;;;;;;24.00;18.83;;;;;;;;;;5022829;28;20460;-82
2023/05/25 01:44:45;;;;;;;19.00;17.20;;;;;;;;;;5030176;28;20486;-81
2023/05/25 01:47:29;;;;;;;19.40;17.37;;;;;;;;;;5049139;28;20443;-83
2023/05/25 01:49:58;;;;;;;16.43;15.00;;;;;;;;;;5040879;28;20758;-84
2023/05/25 01:52:44;;;;;;;19.70;17.80;;;;;;;;;;5012549;28;20438;-81
2023/05/25 01:55:12;;;;;;;27.03;24.63;;;;;;;;;;5025553;28;20419;-82
2023/05/25 01:57:40;;;;;;;29.40;27.17;;;;;;;;;;5015276;28;20502;-82
2023/05/25 02:00:07;;;;;;;22.57;20.80;;;;;;;;;;5019547;28;20475;-82
2023/05/25 02:02:34;;;;;;;25.80;23.20;;;;;;;;;;5015152;28;20450;-82
2023/05/25 02:05:00;;;;;;;24.23;21.90;;;;;;;;;;5027461;28;20497;-82
2023/05/25 02:07:26;;;;;;;28.10;25.93;;;;;;;;;;5026873;28;20985;-82
2023/05/25 02:09:52;;;;;;;32.93;29.73;;;;;;;;;;5024400;28;20843;-82
2023/05/25 02:12:18;;;;;;;25.00;22.67;;;;;;;;;;5014056;28;20431;-81
2023/05/25 02:14:47;;;;;;;23.30;20.93;;;;;;;;;;5027249;28;20452;-82
2023/05/25 02:17:13;;;;;;;24.70;22.73;;;;;;;;;;5014676;28;20446;-81
2023/05/25 02:19:39;;;;;;;25.47;22.73;;;;;;;;;;5026905;28;20506;-81
2023/05/25 02:22:05;;;;;;;25.50;23.40;;;;;;;;;;5026763;28;20476;-81
2023/05/25 02:24:33;;;;;;;31.17;28.23;;;;;;;;;;5027039;28;20430;-82
2023/05/25 02:27:00;;;;;;;50.73;45.93;;;;;;;;;;5022715;28;20513;-82
2023/05/25 02:29:26;;;;;;;28.63;26.13;;;;;;;;;;5024167;28;20505;-83
2023/05/25 02:31:52;;;;;;;64.30;58.83;;;;;;;;;;5017668;28;20432;-82
2023/05/25 02:34:18;;;;;;;31.17;28.47;;;;;;;;;;5023521;28;20930;-82
2023/05/25 02:36:45;;;;;;;29.57;26.87;;;;;;;;;;5025693;28;20434;-82
2023/05/25 02:39:11;;;;;;;32.87;29.67;;;;;;;;;;5025575;28;20525;-82
2023/05/25 02:41:37;;;;;;;34.20;28.70;;;;;;;;;;5027944;28;20489;-82
2023/05/25 02:44:04;;;;;;;32.10;29.53;;;;;;;;;;5024594;28;20445;-82
2023/05/25 02:46:30;;;;;;;33.20;30.33;;;;;;;;;;5025655;28;20423;-82
2023/05/25 02:48:57;;;;;;;35.30;32.40;;;;;;;;;;5025371;28;20481;-81
2023/05/25 02:51:23;;;;;;;29.43;26.73;;;;;;;;;;5027976;28;20426;-81
2023/05/25 02:53:50;;;;;;;28.37;25.73;;;;;;;;;;5020278;28;20938;-82
2023/05/25 02:56:16;;;;;;;28.07;25.40;;;;;;;;;;5026931;28;20461;-82
2023/05/25 02:58:42;;;;;;;24.57;22.43;;;;;;;;;;5018924;28;20602;-81
2023/05/25 03:01:09;;;;;;;23.20;20.87;;;;;;;;;;5028352;28;21159;-82
2023/05/25 03:03:36;;;;;;;27.03;23.67;;;;;;;;;;5013294;28;20533;-82
2023/05/25 03:06:03;;;;;;;25.93;23.10;;;;;;;;;;5017660;28;20431;-83
2023/05/25 03:08:29;;;;;;;39.23;35.30;;;;;;;;;;5012983;28;20442;-82
2023/05/25 03:10:57;;;;;;;37.47;34.60;;;;;;;;;;5029276;28;20478;-82
2023/05/25 03:13:23;;;;;;;37.77;34.53;;;;;;;;;;5024826;28;20423;-82
2023/05/25 03:15:49;;;;;;;26.93;24.33;;;;;;;;;;5028601;28;20402;-82
2023/05/25 03:18:18;;;;;;;22.97;20.90;;;;;;;;;;5025726;28;20542;-82
2023/05/25 03:20:45;;;;;;;24.67;22.50;;;;;;;;;;5024232;28;20523;-83
2023/05/25 03:23:11;;;;;;;27.73;25.40;;;;;;;;;;5025048;28;20514;-80
2023/05/25 03:25:37;;;;;;;31.27;28.43;;;;;;;;;;5028015;28;20418;-82
2023/05/25 03:28:03;;;;;;;21.87;19.57;;;;;;;;;;5021158;28;20427;-81
2023/05/25 03:30:30;;;;;;;28.90;25.97;;;;;;;;;;5023781;28;20606;-82
2023/05/25 03:32:56;;;;;;;54.17;49.30;;;;;;;;;;5024237;28;20446;-82
2023/05/25 03:35:22;;;;;;;23.80;21.77;;;;;;;;;;5028171;28;20586;-82
2023/05/25 03:37:48;;;;;;;23.93;21.93;;;;;;;;;;5026739;28;20583;-82
2023/05/25 03:40:14;;;;;;;26.23;24.33;;;;;;;;;;5050986;28;20406;-82
2023/05/25 03:42:43;;;;;;;21.40;19.33;;;;;;;;;;5045825;28;20445;-82
2023/05/25 03:45:09;;;;;;;24.00;21.83;;;;;;;;;;5031886;28;20418;-82
2023/05/25 03:47:36;;;;;;;34.23;31.53;;;;;;;;;;5010158;28;20455;-82
2023/05/25 03:50:08;;;;;;;29.37;27.07;;;;;;;;;;5018930;28;20466;-83
2023/05/25 03:52:35;;;;;;;33.73;30.93;;;;;;;;;;5021428;28;20538;-82
2023/05/25 03:55:03;;;;;;;29.57;26.90;;;;;;;;;;5017081;28;20930;-83
2023/05/25 03:57:29;;;;;;;27.87;25.23;;;;;;;;;;5015301;28;20442;-82
2023/05/25 03:59:55;;;;;;;27.93;25.17;;;;;;;;;;5024866;28;20442;-82
2023/05/25 04:02:21;;;;;;;30.27;27.50;;;;;;;;;;5006048;28;20450;-82
2023/05/25 04:04:50;;;;;;;32.63;29.43;;;;;;;;;;5024726;28;20438;-83
2023/05/25 04:07:17;;;;;;;28.33;26.20;;;;;;;;;;5020388;28;21234;-83
2023/05/25 04:09:43;;;;;;;29.80;27.27;;;;;;;;;;5023133;28;20479;-82
2023/05/25 04:12:09;;;;;;;27.87;24.97;;;;;;;;;;5017821;28;20818;-83
2023/05/25 04:14:35;;;;;;;30.90;27.90;;;;;;;;;;5030355;28;20438;-82
2023/05/25 04:17:01;;;;;;;26.83;24.30;;;;;;;;;;5033753;28;20443;-83
2023/05/25 04:19:27;;;;;;;26.00;23.40;;;;;;;;;;5027559;28;20794;-83
2023/05/25 04:21:54;;;;;;;26.13;23.83;;;;;;;;;;5034324;28;20434;-82
2023/05/25 04:24:20;;;;;;;31.30;28.60;;;;;;;;;;5030432;28;20406;-81
2023/05/25 04:26:47;;;;;;;23.20;21.20;;;;;;;;;;5033370;28;20490;-83
2023/05/25 04:29:13;;;;;;;23.03;20.33;;;;;;;;;;5030624;28;20461;-83
2023/05/25 04:31:39;;;;;;;28.60;25.87;;;;;;;;;;5025743;28;20451;-81
2023/05/25 04:34:08;;;;;;;22.90;20.77;;;;;;;;;;5028426;28;20469;-81
2023/05/25 04:36:37;;;;;;;26.80;24.20;;;;;;;;;;5021839;28;20458;-81
2023/05/25 04:39:03;;;;;;;25.93;23.73;;;;;;;;;;5021671;28;20504;-82
2023/05/25 04:41:29;;;;;;;27.87;25.50;;;;;;;;;;5015605;28;20453;-82
2023/05/25 04:43:55;;;;;;;25.20;23.10;;;;;;;;;;5027856;28;20414;-81
2023/05/25 04:46:21;;;;;;;20.33;18.13;;;;;;;;;;5032972;28;21080;-82
2023/05/25 04:48:47;;;;;;;18.37;16.50;;;;;;;;;;5026612;28;20541;-82
2023/05/25 04:51:13;;;;;;;63.57;57.67;;;;;;;;;;5022169;28;20442;-82
2023/05/25 04:53:39;;;;;;;19.07;17.30;;;;;;;;;;5031028;28;20448;-82
2023/05/25 04:56:05;;;;;;;22.93;20.93;;;;;;;;;;5024342;28;20472;-82
2023/05/25 04:58:32;;;;;;;28.70;26.07;;;;;;;;;;5035198;28;20482;-82
2023/05/25 05:00:58;;;;;;;23.57;21.93;;;;;;;;;;5030424;28;20839;-82
2023/05/25 05:03:24;;;;;;;32.87;30.17;;;;;;;;;;5020071;28;20811;-82
2023/05/25 05:05:50;;;;;;;30.67;28.07;;;;;;;;;;5033920;28;20446;-80
2023/05/25 05:08:16;;;;;;;40.80;37.90;;;;;;;;;;5022928;28;20445;-83
2023/05/25 05:10:42;;;;;;;45.60;42.27;;;;;;;;;;5033583;28;20474;-81
2023/05/25 05:13:10;;;;;;;50.13;46.73;;;;;;;;;;5028214;28;20427;-81
2023/05/25 05:15:36;;;;;;;59.10;55.33;;;;;;;;;;5028717;28;20991;-82
2023/05/25 05:18:02;;;;;;;54.27;50.50;;;;;;;;;;5026253;28;20438;-82
2023/05/25 05:20:28;;;;;;;41.83;38.77;;;;;;;;;;5030377;28;20901;-82
2023/05/25 05:22:54;;;;;;;78.93;72.27;;;;;;;;;;5025355;28;20433;-83
2023/05/25 05:25:20;;;;;;;62.63;58.30;;;;;;;;;;5032045;28;20917;-82
2023/05/25 05:27:46;;;;;;;111.70;104.03;;;;;;;;;;5025666;28;20425;-83
2023/05/25 05:30:12;;;;;;;78.70;74.30;;;;;;;;;;5043079;28;20505;-83
2023/05/25 05:32:38;;;;;;;72.27;67.57;;;;;;;;;;5060064;28;20430;-82
2023/05/25 05:35:04;;;;;;;74.63;70.43;;;;;;;;;;5042877;28;20457;-85
2023/05/25 05:37:30;;;;;;;73.67;69.10;;;;;;;;;;5039523;28;20542;-82
2023/05/25 05:39:56;;;;;;;71.13;67.00;;;;;;;;;;5023214;28;20449;-83
2023/05/25 05:42:22;;;;;;;56.40;53.00;;;;;;;;;;5023079;28;20458;-83
2023/05/25 05:44:48;;;;;;;53.67;50.13;;;;;;;;;;5020557;28;20455;-83
2023/05/25 05:47:15;;;;;;;71.13;67.07;;;;;;;;;;5024287;28;20453;-80
2023/05/25 05:49:40;;;;;;;82.60;78.13;;;;;;;;;;5022122;28;20910;-85
2023/05/25 05:52:09;;;;;;;75.13;69.87;;;;;;;;;;5025046;28;20439;-80
2023/05/25 05:54:35;;;;;;;59.57;55.37;;;;;;;;;;5019655;28;20636;-82
2023/05/25 05:57:02;;;;;;;50.47;47.17;;;;;;;;;;5028244;28;20459;-82
2023/05/25 05:59:28;;;;;;;39.90;36.07;;;;;;;;;;5017837;28;20447;-84
2023/05/25 06:01:54;;;;;;;38.07;34.93;;;;;;;;;;5023805;28;20438;-82
2023/05/25 06:04:24;;;;;;;62.60;56.97;;;;;;;;;;5014914;28;20494;-81
2023/05/25 06:06:50;;;;;;;27.20;24.60;;;;;;;;;;5026252;28;20496;-83
2023/05/25 06:09:16;;;;;;;43.80;39.70;;;;;;;;;;5025623;28;20480;-82
2023/05/25 06:11:42;;;;;;;30.33;27.93;;;;;;;;;;5022679;28;20485;-82
2023/05/25 06:14:08;;;;;;;37.17;34.57;;;;;;;;;;5018610;28;20499;-83
2023/05/25 06:16:35;;;;;;;29.07;26.67;;;;;;;;;;5024976;28;20666;-81
2023/05/25 06:19:01;;;;;;;39.47;36.00;;;;;;;;;;5017726;28;20868;-79
2023/05/25 06:21:27;;;;;;;27.10;24.67;;;;;;;;;;5023092;28;21254;-80
2023/05/25 06:23:53;;;;;;;30.23;27.53;;;;;;;;;;5016382;28;21102;-84
2023/05/25 06:26:19;;;;;;;30.17;27.67;;;;;;;;;;5014493;28;20430;-83
2023/05/25 06:28:46;;;;;;;38.43;35.13;;;;;;;;;;5020298;28;20506;-84
2023/05/25 06:31:12;;;;;;;34.30;31.40;;;;;;;;;;5029063;28;20429;-82
2023/05/25 06:33:38;;;;;;;51.43;46.80;;;;;;;;;;5026084;28;20478;-83
2023/05/25 06:36:04;;;;;;;29.40;26.53;;;;;;;;;;5020191;28;20500;-83
2023/05/25 06:38:31;;;;;;;29.87;27.30;;;;;;;;;;5020252;28;20431;-81
2023/05/25 06:41:01;;;;;;;31.60;28.83;;;;;;;;;;5033946;28;20555;-83
2023/05/25 06:43:28;;;;;;;33.57;30.37;;;;;;;;;;5019201;28;20453;-82
2023/05/25 06:45:54;;;;;;;29.53;26.63;;;;;;;;;;5018635;28;20465;-82
2023/05/25 06:48:20;;;;;;;24.57;22.33;;;;;;;;;;5028204;28;20445;-81
2023/05/25 06:50:46;;;;;;;31.47;28.13;;;;;;;;;;5018287;28;20526;-83
2023/05/25 06:53:12;;;;;;;30.53;28.30;;;;;;;;;;5032904;28;20505;-82
2023/05/25 06:55:38;;;;;;;32.17;29.77;;;;;;;;;;5024652;28;20532;-81
2023/05/25 06:58:04;;;;;;;40.37;37.33;;;;;;;;;;5023682;28;20838;-81
2023/05/25 07:00:30;;;;;;;38.67;35.63;;;;;;;;;;5021743;28;20442;-82
2023/05/25 07:02:56;;;;;;;36.67;33.53;;;;;;;;;;5023078;28;20458;-81
2023/05/25 07:05:22;;;;;;;31.40;28.53;;;;;;;;;;5010560;28;21016;-78
2023/05/25 07:07:48;;;;;;;27.07;24.53;;;;;;;;;;5023071;28;20450;-79
2023/05/25 07:10:20;;;;;;;22.73;20.70;;;;;;;;;;5025736;28;20470;-81
2023/05/25 07:12:47;;;;;;;26.50;23.90;;;;;;;;;;5024003;28;20564;-83
2023/05/25 07:15:14;;;;;;;22.97;20.90;;;;;;;;;;5018888;28;20439;-82
2023/05/25 07:17:40;;;;;;;27.93;25.47;;;;;;;;;;5023235;28;20911;-81
2023/05/25 07:20:07;;;;;;;53.77;50.17;;;;;;;;;;5022759;28;20462;-81
2023/05/25 07:22:33;;;;;;;75.30;69.13;;;;;;;;;;5024415;28;20429;-79
2023/05/25 07:24:59;;;;;;;30.70;27.80;;;;;;;;;;5018785;28;20431;-81
2023/05/25 07:27:25;;;;;;;24.00;21.83;;;;;;;;;;5049019;28;20434;-79
2023/05/25 07:29:51;;;;;;;55.27;51.63;;;;;;;;;;5045099;28;20524;-81
2023/05/25 07:32:17;;;;;;;69.50;64.73;;;;;;;;;;5047035;28;20445;-82
2023/05/25 07:34:43;;;;;;;51.93;48.10;;;;;;;;;;5026267;28;20525;-82
2023/05/25 07:37:09;;;;;;;50.53;47.27;;;;;;;;;;5031058;28;20422;-83
2023/05/25 07:39:35;;;;;;;71.30;66.00;;;;;;;;;;5021255;28;20542;-83
2023/05/25 07:42:02;;;;;;;29.83;27.60;;;;;;;;;;5031096;28;20432;-82
2023/05/25 07:44:28;;;;;;;55.27;49.83;;;;;;;;;;5020108;28;20457;-82
2023/05/25 07:46:57;;;;;;;28.70;26.20;;;;;;;;;;5027957;28;20423;-82
2023/05/25 07:49:23;;;;;;;52.37;46.87;;;;;;;;;;5029521;28;20516;-80
2023/05/25 07:51:49;;;;;;;21.00;19.30;;;;;;;;;;5028952;28;20423;-82
2023/05/25 07:54:18;;;;;;;26.30;23.67;;;;;;;;;;5029089;28;20453;-80
2023/05/25 07:56:44;;;;;;;21.93;20.00;;;;;;;;;;5022798;28;20436;-80
2023/05/25 07:59:10;;;;;;;21.77;19.80;;;;;;;;;;5021142;28;20431;-80
2023/05/25 08:01:37;;;;;;;21.80;19.80;;;;;;;;;;5027041;28;20509;-82
2023/05/25 08:04:03;;;;;;;23.07;20.70;;;;;;;;;;5021477;28;21073;-82
2023/05/25 08:06:31;;;;;;;25.13;22.90;;;;;;;;;;5025572;28;20541;-83
2023/05/25 08:08:57;;;;;;;23.77;21.90;;;;;;;;;;5018575;28;20510;-84
2023/05/25 08:11:26;;;;;;;29.40;25.13;;;;;;;;;;5019992;28;20511;-83
2023/05/25 08:13:52;;;;;;;18.97;17.47;;;;;;;;;;5020929;28;20450;-81
2023/05/25 08:16:18;;;;;;;25.10;22.80;;;;;;;;;;5014806;28;20536;-80
2023/05/25 08:18:45;;;;;;;28.43;26.23;;;;;;;;;;5025678;28;20486;-80
2023/05/25 08:21:12;;;;;;;22.70;18.97;;;;;;;;;;5021781;28;20458;-82
2023/05/25 08:23:41;;;;;;;19.50;17.80;;;;;;;;;;5022024;28;20434;-85
2023/05/25 08:26:07;;;;;;;19.60;17.50;;;;;;;;;;5027070;28;20485;-83
2023/05/25 08:28:33;;;;;;;20.47;18.73;;;;;;;;;;5031382;28;20446;-83
2023/05/25 08:31:00;;;;;;;19.67;17.50;;;;;;;;;;5033675;28;20470;-82
2023/05/25 08:33:26;;;;;;;19.70;18.03;;;;;;;;;;5021736;28;20456;-80
2023/05/25 08:35:53;;;;;;;17.37;15.70;;;;;;;;;;5024821;28;20434;-79
2023/05/25 08:38:23;;;;;;;20.23;16.43;;;;;;;;;;5022591;28;20415;-78
2023/05/25 08:40:53;;;;;;;18.77;15.60;;;;;;;;;;5022153;28;20652;-82
2023/05/25 08:43:19;;;;;;;23.80;21.33;;;;;;;;;;5030941;28;20463;-85
2023/05/25 08:45:46;;;;;;;26.30;24.27;;;;;;;;;;5026110;28;20466;-84
2023/05/25 08:48:14;;;;;;;23.23;21.43;;;;;;;;;;5034111;28;20469;-82
2023/05/25 08:50:41;;;;;;;23.33;21.23;;;;;;;;;;5029769;28;20488;-84
2023/05/25 08:53:07;;;;;;;47.10;42.50;;;;;;;;;;5023553;28;20439;-82
2023/05/25 08:55:35;;;;;;;21.50;19.50;;;;;;;;;;5022194;28;20477;-83
2023/05/25 08:58:15;;;;;;;20.77;18.90;;;;;;;;;;5020224;28;20447;-83
2023/05/25 09:00:43;;;;;;;19.93;18.33;;;;;;;;;;5022987;28;20427;-83
2023/05/25 09:03:11;;;;;;;17.13;15.77;;;;;;;;;;5021462;28;20723;-82
2023/05/25 09:05:37;;;;;;;16.03;14.27;;;;;;;;;;5023881;28;20476;-83
2023/05/25 09:08:06;;;;;;;19.83;18.13;;;;;;;;;;5018070;28;20426;-82
2023/05/25 09:10:33;;;;;;;14.30;13.20;;;;;;;;;;5023628;28;20470;-84
2023/05/25 09:12:59;;;;;;;15.10;13.70;;;;;;;;;;5021593;28;20443;-83
2023/05/25 09:15:25;;;;;;;17.43;15.63;;;;;;;;;;5022067;28;20525;-82
2023/05/25 09:17:51;;;;;;;17.13;15.70;;;;;;;;;;5016721;28;20438;-80
2023/05/25 09:20:17;;;;;;;19.00;14.70;;;;;;;;;;5021044;28;20435;-79
2023/05/25 09:22:44;;;;;;;18.47;15.40;;;;;;;;;;5034565;28;20428;-80
2023/05/25 09:25:10;;;;;;;14.17;12.97;;;;;;;;;;5043985;28;20915;-81
2023/05/25 09:27:36;;;;;;;16.70;15.13;;;;;;;;;;5047431;28;20499;-81
2023/05/25 09:30:03;;;;;;;17.20;15.70;;;;;;;;;;5031322;28;20494;-83
2023/05/25 09:32:29;;;;;;;18.83;17.00;;;;;;;;;;5022044;28;20883;-83
2023/05/25 09:34:56;;;;;;;15.17;12.40;;;;;;;;;;5022259;28;20485;-82
2023/05/25 09:37:22;;;;;;;22.33;18.43;;;;;;;;;;5029666;28;20447;-81
2023/05/25 09:39:50;;;;;;;20.27;14.80;;;;;;;;;;5021367;28;20735;-81
2023/05/25 09:42:16;;;;;;;16.70;15.27;;;;;;;;;;5032629;28;20488;-82
2023/05/25 09:44:43;;;;;;;15.93;14.60;;;;;;;;;;5037363;28;20446;-86
2023/05/25 09:47:09;;;;;;;16.80;15.30;;;;;;;;;;5028695;28;20449;-78
2023/05/25 09:49:35;;;;;;;20.40;18.50;;;;;;;;;;5021664;28;20474;-81
2023/05/25 09:52:01;;;;;;;19.80;18.13;;;;;;;;;;5023045;28;20439;-79
2023/05/25 09:54:31;;;;;;;20.37;18.53;;;;;;;;;;5020677;28;20450;-84
2023/05/25 09:56:57;;;;;;;21.03;19.60;;;;;;;;;;5018995;28;20446;-83
2023/05/25 09:59:23;;;;;;;39.40;35.37;;;;;;;;;;5017473;28;20445;-83
2023/05/25 10:01:51;;;;;;;17.53;16.07;;;;;;;;;;5025629;28;20512;-84
2023/05/25 10:04:17;;;;;;;41.23;37.07;;;;;;;;;;5020874;28;20470;-83
2023/05/25 10:06:48;;;;;;;18.73;17.13;;;;;;;;;;5025973;28;20850;-85
2023/05/25 10:09:15;;;;;;;19.43;17.70;;;;;;;;;;5022533;28;20515;-82
2023/05/25 10:11:43;;;;;;;16.33;14.93;;;;;;;;;;5026655;28;20462;-83
2023/05/25 10:14:09;;;;;;;18.07;16.60;;;;;;;;;;5016611;28;20443;-81
2023/05/25 10:16:36;;;;;;;16.37;14.40;;;;;;;;;;5017284;28;20465;-80
2023/05/25 10:19:08;;;;;;;17.03;15.80;;;;;;;;;;5023793;28;20431;-82
2023/05/25 10:21:36;;;;;;;17.73;16.30;;;;;;;;;;5019738;28;20442;-83
2023/05/25 10:24:22;;;;;;;17.50;16.20;;;;;;;;;;5022373;28;20430;-83
2023/05/25 10:26:53;;;;;;;16.77;15.43;;;;;;;;;;4985059;28;20463;-83
2023/05/25 10:29:20;;;;;;;17.63;15.87;;;;;;;;;;5019278;28;20545;-81
2023/05/25 10:31:46;;;;;;;18.50;17.03;;;;;;;;;;5024342;28;20434;-83
2023/05/25 10:34:13;;;;;;;20.57;18.43;;;;;;;;;;5026653;28;20433;-84
2023/05/25 10:36:40;;;;;;;17.33;15.83;;;;;;;;;;5026264;28;20461;-83
2023/05/25 10:39:07;;;;;;;18.80;17.30;;;;;;;;;;5021225;28;21139;-81
2023/05/25 10:41:33;;;;;;;15.80;14.60;;;;;;;;;;5016231;28;20457;-82
2023/05/25 10:44:00;;;;;;;21.27;19.20;;;;;;;;;;5039868;28;20796;-85
2023/05/25 10:46:26;;;;;;;18.63;17.03;;;;;;;;;;5013945;28;21257;-84
2023/05/25 10:48:52;;;;;;;19.47;17.67;;;;;;;;;;5027908;28;20450;-86
2023/05/25 10:51:24;;;;;;;18.13;16.50;;;;;;;;;;5025291;28;20439;-79
2023/05/25 10:54:00;;;;;;;18.57;16.93;;;;;;;;;;5028062;28;20445;-80
2023/05/25 10:56:26;;;;;;;17.47;16.10;;;;;;;;;;5019675;28;20450;-80
2023/05/25 10:58:53;;;;;;;22.73;20.73;;;;;;;;;;5027759;28;20422;-82
2023/05/25 11:01:19;;;;;;;15.23;14.03;;;;;;;;;;5033437;28;20600;-83
2023/05/25 11:03:51;;;;;;;20.73;19.13;;;;;;;;;;5038468;28;20418;-83
2023/05/25 11:06:20;;;;;;;21.13;19.10;;;;;;;;;;5032403;28;20434;-83
2023/05/25 11:08:58;;;;;;;21.27;19.53;;;;;;;;;;5028872;28;20531;-83
2023/05/25 11:11:45;;;;;;;19.23;17.63;;;;;;;;;;5026700;28;20450;-85
2023/05/25 11:14:22;;;;;;;17.60;16.13;;;;;;;;;;5027957;28;20421;-82
2023/05/25 11:17:03;;;;;;;23.27;21.00;;;;;;;;;;5043669;28;20429;-80
2023/05/25 11:19:41;;;;;;;22.03;20.10;;;;;;;;;;5055733;28;20461;-81
2023/05/25 11:22:20;;;;;;;18.07;16.50;;;;;;;;;;5041066;28;20450;-79
2023/05/25 11:24:50;;;;;;;15.30;13.93;;;;;;;;;;5046383;28;20497;-80
2023/05/25 11:27:23;;;;;;;18.10;16.43;;;;;;;;;;5028812;28;20501;-84
2023/05/25 11:29:52;;;;;;;17.50;15.90;;;;;;;;;;5032239;28;20504;-84
2023/05/25 11:32:18;;;;;;;18.97;17.37;;;;;;;;;;5029142;28;20505;-83
2023/05/25 11:34:46;;;;;;;15.90;14.60;;;;;;;;;;5022350;28;20435;-83
2023/05/25 11:37:19;;;;;;;15.97;14.43;;;;;;;;;;5030634;28;20442;-80
2023/05/25 11:39:50;;;;;;;22.10;17.00;;;;;;;;;;5025595;28;20430;-83
2023/05/25 11:42:16;;;;;;;22.37;20.60;;;;;;;;;;5021896;28;20442;-84
2023/05/25 11:44:42;;;;;;;19.97;18.13;;;;;;;;;;5020537;28;20435;-84
2023/05/25 11:47:13;;;;;;;17.10;15.80;;;;;;;;;;5023365;28;20451;-85
2023/05/25 11:49:44;;;;;;;18.50;17.10;;;;;;;;;;5023719;28;20468;-83
2023/05/25 11:52:11;;;;;;;19.30;17.63;;;;;;;;;;5017027;28;21046;-84
2023/05/25 11:54:39;;;;;;;21.87;20.10;;;;;;;;;;5024351;28;20506;-84
2023/05/25 11:57:13;;;;;;;18.87;17.23;;;;;;;;;;5019971;28;20554;-82
2023/05/25 11:59:39;;;;;;;22.13;20.30;;;;;;;;;;5022683;28;20484;-82
2023/05/25 12:02:05;;;;;;;19.60;17.90;;;;;;;;;;5016694;28;21307;-83
2023/05/25 12:04:33;;;;;;;21.03;19.23;;;;;;;;;;5026049;28;20426;-83
2023/05/25 12:07:06;;;;;;;19.27;17.33;;;;;;;;;;5011479;28;21332;-83
2023/05/25 12:09:33;;;;;;;18.13;16.10;;;;;;;;;;5019541;28;20550;-81
2023/05/25 12:12:00;;;;;;;44.00;40.27;;;;;;;;;;5016312;28;20788;-83
2023/05/25 12:14:26;;;;;;;20.20;18.30;;;;;;;;;;5024536;28;20463;-84
2023/05/25 12:16:52;;;;;;;36.77;32.97;;;;;;;;;;5023104;28;20433;-82
2023/05/25 12:19:18;;;;;;;21.20;19.40;;;;;;;;;;5018168;28;20431;-81
2023/05/25 12:21:45;;;;;;;18.13;16.47;;;;;;;;;;5023297;28;20807;-82
2023/05/25 12:24:12;;;;;;;21.40;19.50;;;;;;;;;;5022368;28;20468;-82
2023/05/25 12:26:47;;;;;;;18.13;16.17;;;;;;;;;;5023885;28;20438;-83
2023/05/25 12:29:13;;;;;;;18.20;16.60;;;;;;;;;;5016536;28;20496;-80
2023/05/25 12:31:40;;;;;;;18.33;16.60;;;;;;;;;;5026417;28;20450;-81
2023/05/25 12:34:09;;;;;;;16.37;14.83;;;;;;;;;;5020633;28;20442;-80
2023/05/25 12:36:35;;;;;;;21.40;19.50;;;;;;;;;;5017206;28;20485;-80
2023/05/25 12:39:01;;;;;;;17.17;15.60;;;;;;;;;;5018201;28;20435;-80
2023/05/25 12:41:27;;;;;;;20.63;18.80;;;;;;;;;;5017527;28;20879;-79
2023/05/25 12:43:53;;;;;;;17.00;14.70;;;;;;;;;;5035140;28;20521;-84
2023/05/25 12:46:26;;;;;;;21.87;19.60;;;;;;;;;;5023631;28;20423;-80
2023/05/25 12:48:52;;;;;;;17.63;15.87;;;;;;;;;;5023703;28;20458;-79
2023/05/25 12:51:18;;;;;;;15.20;13.67;;;;;;;;;;5028315;28;20454;-79
2023/05/25 12:53:49;;;;;;;18.97;17.47;;;;;;;;;;5025581;28;20489;-81
2023/05/25 12:56:15;;;;;;;21.77;19.73;;;;;;;;;;5024823;28;20465;-80
2023/05/25 12:58:41;;;;;;;20.10;18.47;;;;;;;;;;5018429;28;20934;-81
2023/05/25 13:01:07;;;;;;;23.80;21.87;;;;;;;;;;5022466;28;20817;-80
2023/05/25 13:03:33;;;;;;;24.63;22.63;;;;;;;;;;5024057;28;20446;-78
2023/05/25 13:06:01;;;;;;;21.67;19.60;;;;;;;;;;5013882;28;20439;-78
2023/05/25 13:08:27;;;;;;;16.83;15.50;;;;;;;;;;5022105;28;20504;-76
2023/05/25 13:10:53;;;;;;;18.60;16.90;;;;;;;;;;5029876;28;20605;-78
2023/05/25 13:13:19;;;;;;;18.37;16.70;;;;;;;;;;5023409;28;20514;-78
2023/05/25 13:15:45;;;;;;;23.17;21.17;;;;;;;;;;5047284;28;20411;-79
2023/05/25 13:18:11;;;;;;;18.37;16.87;;;;;;;;;;5031752;28;20434;-77
2023/05/25 13:20:37;;;;;;;16.17;14.80;;;;;;;;;;5039507;28;20523;-78
2023/05/25 13:23:04;;;;;;;18.20;16.90;;;;;;;;;;5032690;28;20512;-77
2023/05/25 13:25:30;;;;;;;22.00;19.70;;;;;;;;;;5023577;28;20426;-78
2023/05/25 13:27:58;;;;;;;17.33;16.00;;;;;;;;;;5020605;28;20466;-80
2023/05/25 13:30:25;;;;;;;26.60;24.40;;;;;;;;;;5009770;28;20917;-84
2023/05/25 13:32:51;;;;;;;30.93;28.27;;;;;;;;;;5026420;28;20437;-84
2023/05/25 13:35:22;;;;;;;18.87;17.10;;;;;;;;;;5029021;28;20922;-85
2023/05/25 13:37:48;;;;;;;41.40;37.33;;;;;;;;;;5030711;28;20427;-85
2023/05/25 13:40:17;;;;;;;25.80;23.60;;;;;;;;;;5020499;28;20409;-81
2023/05/25 13:42:45;;;;;;;35.33;31.63;;;;;;;;;;5025820;28;20493;-83
2023/05/25 13:45:11;;;;;;;19.97;18.53;;;;;;;;;;5028009;28;20465;-82
2023/05/25 13:47:37;;;;;;;31.50;29.30;;;;;;;;;;5004252;28;21225;-81
2023/05/25 13:50:04;;;;;;;20.47;18.93;;;;;;;;;;5026809;28;20480;-82
2023/05/25 13:52:30;;;;;;;36.43;33.17;;;;;;;;;;5019497;28;20446;-83
2023/05/25 13:54:56;;;;;;;35.67;33.23;;;;;;;;;;5023644;28;20435;-81
2023/05/25 13:57:22;;;;;;;21.73;19.77;;;;;;;;;;5029152;28;20954;-82
2023/05/25 13:59:48;;;;;;;19.17;17.47;;;;;;;;;;5027502;28;21016;-83
2023/05/25 14:02:14;;;;;;;20.47;18.57;;;;;;;;;;5039251;28;21202;-82
2023/05/25 14:04:40;;;;;;;21.00;19.10;;;;;;;;;;5019815;28;20540;-83
2023/05/25 14:07:06;;;;;;;18.90;17.23;;;;;;;;;;5021400;28;20479;-80
2023/05/25 14:09:32;;;;;;;21.60;19.60;;;;;;;;;;5017042;28;21008;-86
2023/05/25 14:11:58;;;;;;;21.63;19.83;;;;;;;;;;5015155;28;20605;-83
2023/05/25 14:14:24;;;;;;;37.43;34.93;;;;;;;;;;5017668;28;20784;-82
2023/05/25 14:16:50;;;;;;;28.27;26.03;;;;;;;;;;5008354;28;20447;-83